Time;durP1;ratioP1;P1;durP2;ratioP2;P2;SDS_P1;SDS_P2;PMS_P1;PMS_P2;Temp;Humidity;BMP_temperature;BMP_pressure;BME280_temperature;BME280_humidity;BME280_pressure;Samples;Min_cycle;Max_cycle;Signal;HPM_P1;HPM_P2
2023/01/20 00:00:30;;;;;;;11.80;4.67;;;1.30;99.90;;;;;;5072307;28;20172;-58
2023/01/20 00:02:56;;;;;;;14.27;4.60;;;;;;;;;;5072302;28;20169;-58
2023/01/20 00:05:22;;;;;;;14.17;4.00;;;1.30;99.90;;;;;;5072229;28;20171;-58
2023/01/20 00:07:47;;;;;;;11.33;4.17;;;3.60;99.90;;;;;;5064170;28;20303;-58
2023/01/20 00:10:13;;;;;;;13.53;4.00;;;1.20;99.90;;;;;;5071832;28;20176;-58
2023/01/20 00:12:39;;;;;;;15.30;4.83;;;1.20;99.90;;;;;;5071826;28;20255;-58
2023/01/20 00:15:05;;;;;;;17.80;4.97;;;1.20;99.90;;;;;;5071915;28;20184;-57
2023/01/20 00:17:31;;;;;;;15.50;5.30;;;1.10;99.90;;;;;;5071811;28;20187;-58
2023/01/20 00:19:57;;;;;;;8.87;4.03;;;1.10;99.90;;;;;;5071459;28;20307;-58
2023/01/20 00:22:22;;;;;;;12.73;4.50;;;1.10;99.90;;;;;;5071767;28;20210;-58
2023/01/20 00:24:48;;;;;;;10.73;4.70;;;1.10;99.90;;;;;;5071737;28;20165;-58
2023/01/20 00:27:15;;;;;;;12.63;4.03;;;1.10;99.90;;;;;;5069098;28;20667;-58
2023/01/20 00:29:43;;;;;;;12.20;4.07;;;1.20;99.90;;;;;;5071545;28;20875;-58
2023/01/20 00:32:10;;;;;;;14.43;4.97;;;1.10;99.90;;;;;;5071569;28;20267;-58
2023/01/20 00:34:35;;;;;;;13.33;4.50;;;1.10;99.90;;;;;;5071386;28;20176;-57
2023/01/20 00:37:01;;;;;;;14.23;3.70;;;1.10;99.90;;;;;;5071360;28;20173;-57
2023/01/20 00:39:26;;;;;;;12.03;4.53;;;1.00;99.90;;;;;;5071202;28;20635;-57
2023/01/20 00:41:52;;;;;;;6.37;3.30;;;1.10;99.90;;;;;;5070583;28;20643;-57
2023/01/20 00:44:18;;;;;;;7.77;2.00;;;1.10;99.90;;;;;;5070924;28;20172;-57
2023/01/20 00:46:44;;;;;;;8.00;1.97;;;;;;;;;;5071206;28;20271;-57
2023/01/20 00:49:10;;;;;;;7.60;2.40;;;1.50;99.90;;;;;;5071171;28;20212;-58
2023/01/20 00:51:35;;;;;;;9.00;2.20;;;1.60;99.90;;;;;;5071331;28;20248;-57
2023/01/20 00:54:01;;;;;;;7.60;1.67;;;;;;;;;;5071242;28;20667;-57
2023/01/20 00:56:27;;;;;;;8.03;2.23;;;1.70;99.90;;;;;;5071131;28;20180;-57
2023/01/20 00:58:54;;;;;;;11.03;2.00;;;1.90;99.90;;;;;;5071312;28;20180;-57
2023/01/20 01:01:20;;;;;;;6.40;1.53;;;1.50;99.90;;;;;;5068213;28;20171;-58
2023/01/20 01:03:46;;;;;;;7.07;1.90;;;1.90;99.90;;;;;;5066687;28;20212;-57
2023/01/20 01:06:15;;;;;;;7.70;1.93;;;1.90;99.90;;;;;;5070800;28;20181;-57
2023/01/20 01:08:42;;;;;;;5.47;2.00;;;2.10;99.90;;;;;;5070747;28;20204;-57
2023/01/20 01:11:09;;;;;;;11.47;1.83;;;2.00;99.90;;;;;;5070776;28;20269;-58
2023/01/20 01:13:37;;;;;;;7.97;1.83;;;2.00;99.90;;;;;;5052847;28;20177;-57
2023/01/20 01:16:04;;;;;;;9.37;1.97;;;2.20;99.90;;;;;;5070854;28;20176;-57
2023/01/20 01:18:30;;;;;;;4.67;1.40;;;;;;;;;;5070708;28;20219;-57
2023/01/20 01:20:56;;;;;;;4.77;1.60;;;2.20;99.90;;;;;;5070607;28;20172;-57
2023/01/20 01:23:21;;;;;;;9.03;1.60;;;2.20;99.90;;;;;;5070811;28;20640;-57
2023/01/20 01:25:47;;;;;;;7.00;1.73;;;2.30;99.90;;;;;;5070754;28;20558;-57
2023/01/20 01:28:13;;;;;;;5.00;1.40;;;;;;;;;;5070548;28;20208;-57
2023/01/20 01:30:38;;;;;;;4.90;1.20;;;2.40;99.90;;;;;;5070693;28;20172;-57
2023/01/20 01:33:04;;;;;;;5.47;1.40;;;2.10;99.90;;;;;;5070633;28;20305;-57
2023/01/20 01:35:30;;;;;;;6.10;1.43;;;2.10;99.90;;;;;;5070327;28;20186;-57
2023/01/20 01:37:56;;;;;;;7.77;1.40;;;2.00;99.90;;;;;;5070372;28;20165;-58
2023/01/20 01:40:21;;;;;;;8.70;1.40;;;2.00;99.90;;;;;;5070567;28;20627;-62
2023/01/20 01:42:47;;;;;;;7.00;1.23;;;2.00;99.90;;;;;;5052316;28;20237;-58
2023/01/20 01:45:12;;;;;;;7.17;1.20;;;2.00;99.90;;;;;;5070207;28;20707;-57
2023/01/20 01:47:53;;;;;;;5.13;1.20;;;1.90;99.90;;;;;;5070521;28;20204;-57
2023/01/20 01:50:33;;;;;;;5.47;1.77;;;1.80;99.90;;;;;;5070416;28;20259;-57
2023/01/20 01:52:59;;;;;;;6.47;1.80;;;1.90;99.90;;;;;;5075887;28;20292;-57
2023/01/20 01:55:28;;;;;;;4.80;1.23;;;1.90;99.90;;;;;;5077071;28;20168;-57
2023/01/20 01:57:57;;;;;;;6.60;1.30;;;1.90;99.90;;;;;;5071912;28;20233;-57
2023/01/20 02:00:22;;;;;;;5.63;1.70;;;0.20;99.90;;;;;;5074786;28;20168;-57
2023/01/20 02:02:49;;;;;;;2.83;1.23;;;1.80;99.90;;;;;;5076949;28;20171;-57
2023/01/20 02:05:16;;;;;;;10.13;1.40;;;1.80;99.90;;;;;;5076851;28;20260;-60
2023/01/20 02:07:44;;;;;;;7.80;1.40;;;1.80;99.90;;;;;;5076940;28;20212;-57
2023/01/20 02:10:11;;;;;;;4.87;1.20;;;1.70;99.90;;;;;;5077003;28;20176;-58
2023/01/20 02:12:37;;;;;;;17.60;1.70;;;1.80;99.90;;;;;;5076801;28;20172;-58
2023/01/20 02:15:04;;;;;;;7.67;1.50;;;1.70;99.90;;;;;;5076432;28;20184;-57
2023/01/20 02:18:08;;;;;;;8.87;1.13;;;1.60;99.90;;;;;;5076812;28;20236;-58
2023/01/20 02:20:55;;;;;;;3.63;0.87;;;1.40;99.90;;;;;;5076337;28;20655;-58
2023/01/20 02:23:42;;;;;;;5.80;1.50;;;1.70;99.90;;;;;;5077101;28;20237;-57
2023/01/20 02:26:21;;;;;;;1.27;0.80;;;1.60;99.90;;;;;;5076780;28;20179;-58
2023/01/20 02:28:47;;;;;;;5.17;1.20;;;;;;;;;;5076771;28;20199;-58
2023/01/20 02:31:31;;;;;;;2.70;0.90;;;1.50;99.90;;;;;;5076774;28;20187;-57
2023/01/20 02:34:07;;;;;;;8.37;1.30;;;1.40;99.90;;;;;;5076685;28;20203;-57
2023/01/20 02:37:15;;;;;;;4.17;0.80;;;1.50;99.90;;;;;;5076665;28;20167;-57
2023/01/20 02:40:21;;;;;;;3.20;0.87;;;1.50;99.90;;;;;;5076026;28;20184;-58
2023/01/20 02:43:19;;;;;;;5.00;1.00;;;1.60;99.90;;;;;;5076600;28;20168;-57
2023/01/20 02:45:55;;;;;;;3.70;0.80;;;1.50;99.90;;;;;;5049268;28;20184;-58
2023/01/20 02:48:32;;;;;;;2.33;1.10;;;1.60;99.90;;;;;;5076453;28;20211;-58
2023/01/20 02:51:31;;;;;;;6.93;1.10;;;1.40;99.90;;;;;;5076298;28;20179;-57
2023/01/20 02:54:03;;;;;;;9.07;1.03;;;1.60;99.90;;;;;;5057309;28;20247;-58
2023/01/20 02:56:30;;;;;;;11.17;1.27;;;1.60;99.90;;;;;;5076496;28;20634;-57
2023/01/20 02:59:18;;;;;;;5.27;1.30;;;1.40;99.90;;;;;;5076308;28;20195;-55
2023/01/20 03:01:52;;;;;;;6.93;1.43;;;1.60;99.90;;;;;;5076017;28;20174;-58
2023/01/20 03:04:24;;;;;;;4.33;1.00;;;1.80;99.90;;;;;;5072794;28;20674;-57
2023/01/20 03:06:53;;;;;;;3.50;1.10;;;1.50;99.90;;;;;;5073003;28;20218;-57
2023/01/20 03:09:25;;;;;;;6.70;1.30;;;2.70;99.90;;;;;;5073132;28;20238;-57
2023/01/20 03:11:57;;;;;;;5.60;1.20;;;1.40;99.90;;;;;;5072746;28;20260;-57
2023/01/20 03:14:23;;;;;;;9.00;1.30;;;1.70;99.90;;;;;;5072767;28;20191;-57
2023/01/20 03:16:49;;;;;;;14.23;2.03;;;1.80;99.90;;;;;;5053096;28;20165;-57
2023/01/20 03:19:17;;;;;;;6.13;1.80;;;1.60;99.90;;;;;;5052815;28;20221;-57
2023/01/20 03:21:43;;;;;;;10.87;1.93;;;1.80;99.90;;;;;;5052998;28;20667;-57
2023/01/20 03:24:09;;;;;;;8.87;1.40;;;2.00;99.90;;;;;;5052788;28;20264;-57
2023/01/20 03:26:34;;;;;;;6.77;1.67;;;2.00;99.90;;;;;;5052873;28;20274;-57
2023/01/20 03:29:14;;;;;;;8.37;1.60;;;2.30;99.90;;;;;;5052842;28;20211;-57
2023/01/20 03:31:53;;;;;;;11.03;1.53;;;2.00;99.90;;;;;;5052907;28;20169;-60
2023/01/20 03:34:22;;;;;;;6.67;1.43;;;2.20;99.90;;;;;;5052638;28;20509;-56
2023/01/20 03:36:48;;;;;;;5.93;1.17;;;2.20;99.90;;;;;;5070076;28;20191;-57
2023/01/20 03:39:15;;;;;;;12.03;1.77;;;2.10;99.90;;;;;;5072514;28;20674;-57
2023/01/20 03:42:08;;;;;;;7.30;1.80;;;2.20;99.90;;;;;;5054500;28;20183;-57
2023/01/20 03:44:55;;;;;;;5.10;1.53;;;2.20;99.90;;;;;;5072638;28;20535;-56
2023/01/20 03:47:37;;;;;;;11.17;1.60;;;2.60;99.90;;;;;;5072384;28;20196;-56
2023/01/20 03:50:15;;;;;;;7.23;1.80;;;2.40;99.90;;;;;;5064554;28;20203;-56
2023/01/20 03:52:46;;;;;;;10.30;1.77;;;2.50;99.90;;;;;;5072483;28;20176;-56
2023/01/20 03:55:25;;;;;;;8.13;1.90;;;2.40;99.90;;;;;;5072100;28;20168;-57
2023/01/20 03:58:02;;;;;;;2.77;1.40;;;2.40;99.90;;;;;;5068276;28;20179;-57
2023/01/20 04:00:28;;;;;;;8.37;1.60;;;2.30;99.90;;;;;;5072348;28;20234;-57
2023/01/20 04:02:55;;;;;;;6.90;1.80;;;;;;;;;;5072065;28;20177;-57
2023/01/20 04:05:21;;;;;;;13.47;1.40;;;2.40;99.90;;;;;;5071911;28;20639;-57
2023/01/20 04:07:48;;;;;;;11.13;1.90;;;2.50;99.90;;;;;;5054047;28;20208;-57
2023/01/20 04:10:16;;;;;;;7.57;1.57;;;2.40;99.90;;;;;;5071900;28;20574;-56
2023/01/20 04:12:42;;;;;;;11.23;1.70;;;2.50;99.90;;;;;;5071795;28;20172;-57
2023/01/20 04:15:09;;;;;;;6.53;1.67;;;2.50;99.90;;;;;;5071565;28;20253;-57
2023/01/20 04:17:34;;;;;;;8.90;1.33;;;2.30;99.90;;;;;;5071914;28;20173;-56
2023/01/20 04:20:06;;;;;;;6.93;1.17;;;2.40;99.90;;;;;;5071668;28;20221;-56
2023/01/20 04:22:51;;;;;;;5.43;1.03;;;2.30;99.90;;;;;;5071697;28;20180;-57
2023/01/20 04:25:26;;;;;;;5.90;1.17;;;2.20;99.90;;;;;;5071671;28;20576;-57
2023/01/20 04:27:51;;;;;;;5.93;1.40;;;2.00;99.90;;;;;;5071594;28;20234;-56
2023/01/20 04:30:17;;;;;;;7.67;1.50;;;2.30;99.90;;;;;;5071571;28;20165;-56
2023/01/20 04:32:43;;;;;;;7.73;1.57;;;2.10;99.90;;;;;;5071648;28;20229;-56
2023/01/20 04:35:17;;;;;;;5.60;1.47;;;2.20;99.90;;;;;;5071619;28;20175;-56
2023/01/20 04:37:43;;;;;;;7.57;1.43;;;2.10;99.90;;;;;;5071623;28;20172;-56
2023/01/20 04:40:09;;;;;;;9.43;1.30;;;2.00;99.90;;;;;;5071240;28;20188;-57
2023/01/20 04:42:35;;;;;;;5.33;1.43;;;2.00;99.90;;;;;;5071501;28;20646;-57
2023/01/20 04:45:01;;;;;;;6.17;1.60;;;2.40;99.90;;;;;;5063754;28;20277;-57
2023/01/20 04:47:31;;;;;;;7.63;1.17;;;2.40;99.90;;;;;;5053259;28;20210;-57
2023/01/20 04:49:57;;;;;;;6.17;1.43;;;2.30;99.90;;;;;;5071438;28;20176;-57
2023/01/20 04:52:22;;;;;;;5.83;1.07;;;2.50;99.90;;;;;;5071105;28;20726;-57
2023/01/20 04:54:48;;;;;;;7.97;1.13;;;2.60;99.90;;;;;;5071236;28;20168;-56
2023/01/20 04:57:14;;;;;;;11.67;1.50;;;2.50;99.90;;;;;;5071343;28;20697;-56
2023/01/20 04:59:41;;;;;;;7.07;1.20;;;2.40;99.90;;;;;;5071252;28;20165;-57
2023/01/20 05:02:06;;;;;;;3.70;1.17;;;2.30;99.90;;;;;;5070200;28;20183;-57
2023/01/20 05:04:32;;;;;;;5.07;1.37;;;2.20;99.90;;;;;;5070841;28;20172;-57
2023/01/20 05:06:57;;;;;;;8.77;1.60;;;2.20;99.90;;;;;;5050966;28;20181;-57
2023/01/20 05:09:23;;;;;;;7.03;1.50;;;;;;;;;;5052439;28;20235;-56
2023/01/20 05:11:49;;;;;;;6.50;1.03;;;2.50;99.90;;;;;;5070475;28;20204;-56
2023/01/20 05:14:14;;;;;;;10.10;1.10;;;2.10;99.90;;;;;;5070850;28;20176;-56
2023/01/20 05:16:40;;;;;;;4.17;1.30;;;2.50;99.90;;;;;;5070757;28;20180;-56
2023/01/20 05:19:06;;;;;;;7.33;1.40;;;2.50;99.90;;;;;;5070405;28;20243;-56
2023/01/20 05:21:46;;;;;;;5.57;1.20;;;2.40;99.90;;;;;;5026673;28;20200;-56
2023/01/20 05:24:12;;;;;;;1.87;0.83;;;2.30;99.90;;;;;;5070633;28;20179;-56
2023/01/20 05:26:38;;;;;;;3.63;0.90;;;;;;;;;;5070195;28;20290;-56
2023/01/20 05:29:04;;;;;;;7.40;1.27;;;2.20;99.90;;;;;;5070511;28;20204;-56
2023/01/20 05:31:30;;;;;;;7.17;1.43;;;2.10;99.90;;;;;;5070418;28;20193;-56
2023/01/20 05:33:56;;;;;;;5.80;1.13;;;2.00;99.90;;;;;;5070769;28;20271;-56
2023/01/20 05:36:22;;;;;;;7.17;1.60;;;2.10;99.90;;;;;;5070309;28;20211;-56
2023/01/20 05:38:47;;;;;;;5.33;1.53;;;2.00;99.90;;;;;;5063441;28;20173;-57
2023/01/20 05:41:13;;;;;;;5.00;1.17;;;1.70;99.90;;;;;;5070127;28;20180;-57
2023/01/20 05:43:39;;;;;;;6.53;1.23;;;2.10;99.90;;;;;;5070354;28;20654;-56
2023/01/20 05:46:05;;;;;;;8.13;1.60;;;2.90;99.90;;;;;;5070402;28;20212;-56
2023/01/20 05:48:31;;;;;;;9.67;1.50;;;1.90;99.90;;;;;;5070476;28;20208;-57
2023/01/20 05:50:57;;;;;;;8.33;1.40;;;1.90;99.90;;;;;;5070177;28;20187;-57
2023/01/20 05:53:23;;;;;;;7.87;1.53;;;2.00;99.90;;;;;;5070533;28;20176;-56
2023/01/20 05:55:48;;;;;;;9.60;1.20;;;4.60;99.90;;;;;;5070421;28;20255;-56
2023/01/20 05:58:14;;;;;;;9.73;1.40;;;2.00;99.90;;;;;;5070411;28;20172;-57
2023/01/20 06:00:40;;;;;;;7.97;1.30;;;1.90;99.90;;;;;;5070332;28;20176;-57
2023/01/20 06:03:05;;;;;;;8.83;1.43;;;2.00;99.90;;;;;;5070383;28;20195;-57
2023/01/20 06:05:31;;;;;;;3.27;1.37;;;2.10;99.90;;;;;;5070400;28;20252;-57
2023/01/20 06:07:58;;;;;;;5.97;1.10;;;2.20;99.90;;;;;;5070132;28;20196;-57
2023/01/20 06:10:26;;;;;;;7.37;1.33;;;2.40;99.90;;;;;;5070188;28;20326;-56
2023/01/20 06:12:53;;;;;;;10.33;1.80;;;;;;;;;;5070302;28;20169;-56
2023/01/20 06:15:19;;;;;;;4.80;1.10;;;2.30;99.90;;;;;;5069866;28;20275;-56
2023/01/20 06:17:44;;;;;;;10.07;1.77;;;2.30;99.90;;;;;;5070377;28;20263;-57
2023/01/20 06:20:11;;;;;;;5.73;1.20;;;2.30;99.90;;;;;;5068631;28;20683;-57
2023/01/20 06:22:36;;;;;;;7.50;1.17;;;2.20;99.90;;;;;;5070200;28;20177;-56
2023/01/20 06:25:03;;;;;;;5.23;1.40;;;2.40;99.90;;;;;;5069903;28;20234;-56
2023/01/20 06:27:28;;;;;;;7.70;1.40;;;2.40;99.90;;;;;;5070033;28;20242;-57
2023/01/20 06:29:54;;;;;;;9.47;1.40;;;2.40;99.90;;;;;;5069628;28;20172;-56
2023/01/20 06:32:20;;;;;;;6.23;1.10;;;2.40;99.90;;;;;;5070029;28;20596;-56
2023/01/20 06:34:46;;;;;;;3.00;1.00;;;2.50;99.90;;;;;;5062646;28;20726;-56
2023/01/20 06:37:11;;;;;;;4.43;1.03;;;2.50;99.90;;;;;;5069920;28;20206;-56
2023/01/20 06:39:37;;;;;;;9.17;1.53;;;2.50;99.90;;;;;;5072328;28;20176;-56
2023/01/20 06:42:03;;;;;;;9.47;1.60;;;2.50;99.90;;;;;;5055799;28;20205;-56
2023/01/20 06:44:29;;;;;;;5.77;1.30;;;2.60;99.90;;;;;;5073632;28;20169;-56
2023/01/20 06:46:56;;;;;;;5.77;1.50;;;2.60;99.90;;;;;;5073774;28;20176;-56
2023/01/20 06:49:22;;;;;;;6.17;1.30;;;2.60;99.90;;;;;;5073441;28;20208;-56
2023/01/20 06:51:48;;;;;;;7.03;1.07;;;2.60;99.90;;;;;;5073372;28;20172;-56
2023/01/20 06:54:14;;;;;;;12.17;1.50;;;2.80;99.90;;;;;;5073532;28;20271;-56
2023/01/20 06:56:40;;;;;;;9.10;1.30;;;2.80;99.90;;;;;;5073311;28;20483;-57
2023/01/20 06:59:05;;;;;;;10.50;1.17;;;2.90;99.90;;;;;;5073283;28;20180;-56
2023/01/20 07:01:31;;;;;;;5.63;1.20;;;2.90;99.90;;;;;;5073341;28;20187;-56
2023/01/20 07:03:57;;;;;;;4.63;1.07;;;2.80;99.90;;;;;;5073227;28;20168;-56
2023/01/20 07:06:37;;;;;;;4.30;1.30;;;2.80;99.90;;;;;;5073277;28;20176;-57
2023/01/20 07:09:05;;;;;;;5.20;1.13;;;2.80;99.90;;;;;;5073216;28;20204;-57
2023/01/20 07:11:31;;;;;;;8.63;1.43;;;;;;;;;;5072988;28;20168;-57
2023/01/20 07:13:57;;;;;;;9.10;1.03;;;2.70;99.90;;;;;;5072984;28;20180;-57
2023/01/20 07:16:23;;;;;;;6.53;1.30;;;2.60;99.90;;;;;;5073129;28;20712;-57
2023/01/20 07:18:50;;;;;;;9.80;1.50;;;2.70;99.90;;;;;;5072902;28;20264;-57
2023/01/20 07:21:16;;;;;;;3.00;0.73;;;2.60;99.90;;;;;;5072957;28;20169;-56
2023/01/20 07:23:42;;;;;;;3.87;1.00;;;2.70;99.90;;;;;;5070622;28;20211;-56
2023/01/20 07:26:13;;;;;;;8.97;1.40;;;2.60;99.90;;;;;;5072728;28;20640;-56
2023/01/20 07:28:39;;;;;;;9.00;1.13;;;2.40;99.90;;;;;;5048911;28;20212;-57
2023/01/20 07:31:12;;;;;;;7.73;0.90;;;2.60;99.90;;;;;;5054134;28;20271;-56
2023/01/20 07:33:38;;;;;;;9.13;1.20;;;1.90;99.90;;;;;;5071630;28;20200;-56
2023/01/20 07:36:06;;;;;;;10.17;0.90;;;2.30;99.90;;;;;;5071172;28;20256;-56
2023/01/20 07:38:32;;;;;;;10.90;1.50;;;2.30;99.90;;;;;;5071445;28;20177;-56
2023/01/20 07:40:59;;;;;;;5.77;1.10;;;2.60;99.90;;;;;;5071960;28;20176;-56
2023/01/20 07:43:24;;;;;;;6.33;1.10;;;2.30;99.90;;;;;;5071363;28;20334;-55
2023/01/20 07:45:56;;;;;;;10.60;1.00;;;2.50;99.90;;;;;;5072504;28;20267;-55
2023/01/20 07:48:23;;;;;;;6.43;1.07;;;2.50;99.90;;;;;;5072350;28;20251;-55
2023/01/20 07:51:04;;;;;;;5.73;1.20;;;2.70;99.90;;;;;;5071810;28;20687;-56
2023/01/20 07:53:35;;;;;;;7.27;0.97;;;2.70;99.90;;;;;;5072715;28;20180;-55
2023/01/20 07:56:15;;;;;;;7.77;1.07;;;2.60;99.90;;;;;;5072379;28;20294;-55
2023/01/20 07:58:44;;;;;;;7.77;1.23;;;2.50;99.90;;;;;;5072236;28;20169;-55
2023/01/20 08:01:37;;;;;;;6.17;1.30;;;2.60;99.90;;;;;;5072435;28;20160;-55
2023/01/20 08:04:03;;;;;;;6.10;0.90;;;;;;;;;;5067705;28;20314;-55
2023/01/20 08:06:30;;;;;;;16.13;1.23;;;2.70;99.90;;;;;;5072041;28;20179;-55
2023/01/20 08:08:59;;;;;;;4.80;0.87;;;2.80;99.90;;;;;;5072093;28;20291;-55
2023/01/20 08:11:25;;;;;;;4.20;1.00;;;2.80;99.90;;;;;;5071656;28;20191;-55
2023/01/20 08:13:51;;;;;;;6.77;0.83;;;2.70;99.90;;;;;;5071315;28;20190;-55
2023/01/20 08:16:17;;;;;;;5.53;1.10;;;2.60;99.90;;;;;;5071101;28;20272;-55
2023/01/20 08:18:43;;;;;;;3.40;1.00;;;2.60;99.90;;;;;;5071796;28;20269;-56
2023/01/20 08:21:24;;;;;;;10.47;1.20;;;2.60;99.90;;;;;;5071912;28;20180;-56
2023/01/20 08:23:50;;;;;;;4.20;1.00;;;2.90;99.90;;;;;;5069976;28;20287;-55
2023/01/20 08:26:16;;;;;;;6.97;1.07;;;5.10;99.90;;;;;;5071354;28;20256;-55
2023/01/20 08:28:41;;;;;;;5.23;0.80;;;2.80;99.90;;;;;;5078172;28;20208;-56
2023/01/20 08:31:13;;;;;;;5.40;0.87;;;3.00;99.90;;;;;;5071667;28;20165;-55
2023/01/20 08:33:41;;;;;;;7.10;0.97;;;3.10;99.90;;;;;;5084039;28;20172;-56
2023/01/20 08:36:12;;;;;;;6.30;1.03;;;3.30;99.90;;;;;;5079534;28;20176;-56
2023/01/20 08:38:39;;;;;;;4.60;1.07;;;3.50;99.90;;;;;;5091743;28;20176;-56
2023/01/20 08:41:18;;;;;;;4.70;1.33;;;3.80;99.90;;;;;;5074541;28;20255;-56
2023/01/20 08:43:44;;;;;;;10.33;1.20;;;4.40;99.90;;;;;;5071297;28;20263;-57
2023/01/20 08:46:13;;;;;;;8.60;1.00;;;4.30;99.90;;;;;;5071186;28;20589;-56
2023/01/20 08:48:40;;;;;;;4.83;0.97;;;4.30;99.90;;;;;;5071118;28;20208;-56
2023/01/20 08:51:10;;;;;;;14.37;1.40;;;4.50;99.90;;;;;;5071229;28;20173;-56
2023/01/20 08:53:36;;;;;;;6.90;1.10;;;4.60;99.90;;;;;;5090757;28;20176;-56
2023/01/20 08:56:03;;;;;;;4.73;1.40;;;4.60;99.90;;;;;;5091177;28;20233;-57
2023/01/20 08:58:29;;;;;;;10.17;0.90;;;5.00;99.90;;;;;;5091436;28;20212;-58
2023/01/20 09:00:55;;;;;;;5.13;1.10;;;5.60;99.90;;;;;;5072312;28;20175;-58
2023/01/20 09:03:22;;;;;;;7.73;1.00;;;5.90;99.90;;;;;;5075407;28;20180;-58
2023/01/20 09:05:48;;;;;;;9.27;0.90;;;6.70;99.90;;;;;;5070527;28;20192;-59
2023/01/20 09:08:16;;;;;;;4.50;1.13;;;6.50;99.90;;;;;;5070775;28;20220;-59
2023/01/20 09:10:42;;;;;;;10.97;1.10;;;;;;;;;;5070724;28;20650;-59
2023/01/20 09:13:07;;;;;;;9.90;0.97;;;6.30;99.90;;;;;;5070318;28;20185;-57
2023/01/20 09:15:33;;;;;;;9.73;1.23;;;6.60;99.90;;;;;;5069556;28;20177;-59
2023/01/20 09:17:58;;;;;;;6.43;1.30;;;7.60;99.90;;;;;;5070556;28;20615;-60
2023/01/20 09:20:26;;;;;;;9.37;1.60;;;8.10;99.90;;;;;;5063170;28;20774;-59
2023/01/20 09:22:51;;;;;;;10.27;1.40;;;7.90;99.90;;;;;;5070315;28;20171;-61
2023/01/20 09:25:17;;;;;;;4.47;1.37;;;8.50;99.90;;;;;;5070675;28;20176;-59
2023/01/20 09:27:43;;;;;;;9.27;1.63;;;9.50;99.90;;;;;;5070730;28;20197;-64
2023/01/20 09:30:09;;;;;;;8.67;1.40;;;10.70;99.90;;;;;;5070694;28;20631;-59
2023/01/20 09:32:35;;;;;;;6.47;1.40;;;11.30;99.90;;;;;;5070750;28;20179;-58
2023/01/20 09:35:00;;;;;;;10.37;1.60;;;10.30;99.90;;;;;;5070592;28;20259;-58
2023/01/20 09:46:07;;;;;;;5.90;1.53;;;8.90;99.90;;;;;;5061848;28;20254;-59
2023/01/20 09:55:03;;;;;;;7.80;1.37;;;10.00;99.90;;;;;;5069647;28;20186;-56
2023/01/20 09:57:35;;;;;;;6.43;1.53;;;8.70;99.90;;;;;;5068516;28;20184;-59
2023/01/20 10:00:08;;;;;;;6.03;1.47;;;8.40;99.90;;;;;;5070119;28;20180;-59
2023/01/20 10:02:35;;;;;;;4.80;1.33;;;8.10;99.90;;;;;;5070288;28;20177;-59
2023/01/20 10:05:12;;;;;;;7.37;1.03;;;7.50;99.90;;;;;;5069774;28;20200;-57
2023/01/20 10:07:46;;;;;;;10.23;2.00;;;7.50;99.90;;;;;;5069744;28;20218;-57
2023/01/20 10:10:28;;;;;;;6.67;1.20;;;7.60;99.90;;;;;;5067511;28;20693;-57
2023/01/20 10:13:02;;;;;;;7.30;1.20;;;7.00;99.90;;;;;;5070617;28;20253;-59
2023/01/20 10:15:33;;;;;;;6.20;1.30;;;7.00;99.90;;;;;;5065819;28;20253;-57
2023/01/20 10:18:25;;;;;;;6.27;1.13;;;7.00;99.90;;;;;;5074060;28;20176;-58
2023/01/20 10:20:57;;;;;;;8.03;1.40;;;6.70;99.90;;;;;;5066473;28;20180;-57
2023/01/20 10:23:25;;;;;;;6.33;1.20;;;6.80;99.90;;;;;;5071627;28;20182;-57
2023/01/20 10:26:01;;;;;;;8.77;1.40;;;6.80;99.90;;;;;;5073962;28;20169;-56
2023/01/20 10:28:29;;;;;;;6.23;1.50;;;6.80;99.90;;;;;;5073821;28;20250;-56
2023/01/20 10:31:01;;;;;;;5.77;1.50;;;6.80;99.90;;;;;;5073699;28;20271;-56
2023/01/20 10:33:42;;;;;;;6.07;1.27;;;6.80;99.90;;;;;;5073661;28;20173;-56
2023/01/20 10:36:20;;;;;;;7.97;1.70;;;7.10;99.90;;;;;;5073728;28;20260;-57
2023/01/20 10:39:00;;;;;;;10.50;1.80;;;7.00;99.90;;;;;;5073261;28;20164;-56
2023/01/20 10:41:47;;;;;;;10.67;2.23;;;7.10;99.90;;;;;;5055682;28;20184;-57
2023/01/20 10:44:14;;;;;;;12.13;2.37;;;7.40;99.90;;;;;;5072928;28;20516;-56
2023/01/20 10:46:49;;;;;;;10.67;2.73;;;7.30;99.90;;;;;;5073489;28;20176;-57
2023/01/20 10:49:24;;;;;;;9.07;2.40;;;7.30;99.90;;;;;;5073020;28;20208;-57
2023/01/20 10:52:40;;;;;;;13.27;4.30;;;7.60;99.90;;;;;;5073250;28;20172;-57
2023/01/20 10:55:29;;;;;;;18.90;6.67;;;7.80;99.90;;;;;;4991738;28;20183;-57
2023/01/20 10:58:10;;;;;;;7.47;2.93;;;10.10;99.90;;;;;;5073466;28;20165;-57
2023/01/20 11:00:38;;;;;;;6.93;2.13;;;9.90;99.90;;;;;;5073122;28;20294;-56
2023/01/20 11:03:09;;;;;;;8.20;2.30;;;9.80;99.90;;;;;;5072283;28;20177;-59
2023/01/20 11:05:37;;;;;;;7.17;2.17;;;9.80;99.90;;;;;;5064573;28;20194;-59
2023/01/20 11:08:09;;;;;;;4.33;1.87;;;11.70;99.90;;;;;;5071358;28;20578;-58
2023/01/20 11:10:35;;;;;;;8.10;2.20;;;14.10;99.90;;;;;;5065407;28;20559;-57
2023/01/20 11:13:01;;;;;;;10.77;1.97;;;14.10;99.90;;;;;;5072405;28;20777;-58
2023/01/20 11:15:31;;;;;;;6.30;1.57;;;13.10;99.90;;;;;;5071929;28;20178;-57
2023/01/20 11:18:15;;;;;;;5.83;1.20;;;13.50;99.90;;;;;;5072838;28;20176;-57
2023/01/20 11:21:03;;;;;;;7.93;1.60;;;12.90;99.90;;;;;;5069187;28;20283;-58
2023/01/20 11:23:31;;;;;;;9.40;1.73;;;12.20;99.90;;;;;;5061341;28;20629;-59
2023/01/20 11:26:18;;;;;;;10.43;1.90;;;13.20;99.90;;;;;;5059214;28;20623;-59
2023/01/20 11:28:47;;;;;;;5.15;1.30;;;14.20;99.90;;;;;;5066405;28;20212;-59
2023/01/20 11:31:13;;;;;;;7.57;1.40;;;12.90;99.90;;;;;;5071067;28;20168;-59
2023/01/20 11:33:39;;;;;;;8.32;1.33;;;12.60;99.90;;;;;;5071336;28;20248;-59
2023/01/20 11:36:17;;;;;;;8.50;1.38;;;13.70;99.90;;;;;;5070746;28;20575;-59
2023/01/20 11:38:48;;;;;;;6.25;1.40;;;14.40;99.90;;;;;;5061154;28;20517;-59
2023/01/20 11:41:22;;;;;;;7.32;1.38;;;15.50;99.90;;;;;;5071199;28;20217;-59
2023/01/20 11:43:49;;;;;;;11.00;3.38;;;15.20;97.40;;;;;;5064655;28;20200;-59
2023/01/20 11:46:18;;;;;;;8.82;1.50;;;17.70;94.50;;;;;;5070293;28;20264;-60
2023/01/20 11:48:44;;;;;;;5.38;1.20;;;19.60;53.70;;;;;;5070163;28;20216;-59
2023/01/20 11:51:24;;;;;;;7.32;1.77;;;19.60;54.40;;;;;;5070413;28;20192;-59
2023/01/20 11:53:50;;;;;;;11.23;2.50;;;20.30;37.80;;;;;;5070335;28;20169;-59
2023/01/20 11:56:25;;;;;;;12.10;1.70;;;21.10;26.40;;;;;;5070321;28;20168;-60
2023/01/20 11:58:58;;;;;;;7.55;1.88;;;22.00;15.90;;;;;;5070642;28;20194;-59
2023/01/20 12:01:29;;;;;;;8.05;1.92;;;22.60;11.00;;;;;;5072252;28;20181;-60
2023/01/20 12:04:20;;;;;;;5.03;1.38;;;22.80;1.00;;;;;;5069733;28;20168;-60
2023/01/20 12:07:01;;;;;;;15.73;1.85;;;23.20;1.00;;;;;;5072438;28;20588;-60
2023/01/20 12:09:33;;;;;;;5.72;1.67;;;23.00;1.00;;;;;;5071835;28;20220;-60
2023/01/20 12:12:03;;;;;;;3.78;1.15;;;24.50;1.00;;;;;;5071841;28;20164;-60
2023/01/20 12:14:36;;;;;;;11.98;1.65;;;23.70;1.00;;;;;;5071857;28;20169;-60
2023/01/20 12:17:07;;;;;;;8.43;1.55;;;23.90;1.00;;;;;;5053875;28;20180;-60
2023/01/20 12:19:59;;;;;;;14.35;1.90;;;23.70;1.00;;;;;;5071641;28;20219;-60
2023/01/20 12:22:47;;;;;;;5.82;1.30;;;24.30;1.00;;;;;;5071913;28;20191;-60
2023/01/20 12:25:34;;;;;;;6.57;1.60;;;24.50;1.00;;;;;;5071489;28;20570;-60
2023/01/20 12:28:39;;;;;;;8.95;1.75;;;23.90;1.00;;;;;;5071352;28;20728;-60
2023/01/20 12:31:08;;;;;;;4.75;1.30;;;24.30;1.00;;;;;;5071531;28;20176;-60
2023/01/20 12:33:43;;;;;;;10.77;1.40;;;23.70;1.00;;;;;;5053442;28;20208;-60
2023/01/20 12:36:27;;;;;;;7.57;1.95;;;24.10;1.00;;;;;;5071289;28;20172;-60
2023/01/20 12:39:14;;;;;;;8.45;1.60;;;24.70;1.00;;;;;;5071606;28;20179;-59
2023/01/20 12:41:51;;;;;;;6.78;1.85;;;24.80;1.00;;;;;;5071223;28;20171;-61
2023/01/20 12:44:34;;;;;;;7.15;2.10;;;25.50;1.00;;;;;;5071093;28;20179;-60
2023/01/20 12:47:27;;;;;;;15.27;2.75;;;24.60;1.00;;;;;;5071172;28;20173;-59
2023/01/20 12:50:14;;;;;;;4.53;1.30;;;24.50;1.00;;;;;;5071031;28;20184;-60
2023/01/20 12:52:53;;;;;;;8.35;2.78;;;25.30;1.00;;;;;;5071424;28;20255;-60
2023/01/20 12:55:47;;;;;;;7.75;2.20;;;25.10;1.00;;;;;;5071070;28;20202;-61
2023/01/20 12:58:35;;;;;;;19.10;2.72;;;25.80;1.00;;;;;;5060292;28;20181;-60
2023/01/20 13:01:35;;;;;;;12.38;1.95;;;24.50;1.00;;;;;;5070947;28;20176;-60
2023/01/20 13:04:10;;;;;;;7.75;1.75;;;24.40;1.00;;;;;;5070978;28;20169;-60
2023/01/20 13:06:57;;;;;;;14.75;2.20;;;24.70;1.00;;;;;;5070960;28;20175;-60
2023/01/20 13:09:31;;;;;;;12.60;2.33;;;24.10;1.00;;;;;;5070877;28;20252;-60
2023/01/20 13:12:00;;;;;;;11.85;1.90;;;24.40;1.00;;;;;;5070648;28;20168;-60
2023/01/20 13:14:39;;;;;;;7.10;1.60;;;24.90;1.00;;;;;;5070823;28;20169;-60
2023/01/20 13:17:36;;;;;;;9.40;1.75;;;24.70;1.00;;;;;;5064623;28;20280;-60
2023/01/20 13:20:13;;;;;;;10.48;2.33;;;24.00;1.00;;;;;;5070550;28;20216;-60
2023/01/20 13:22:38;;;;;;;14.25;2.72;;;24.50;1.00;;;;;;5066445;28;20180;-60
2023/01/20 13:25:06;;;;;;;18.88;2.50;;;24.40;1.00;;;;;;5068067;28;20317;-60
2023/01/20 13:27:37;;;;;;;9.95;2.03;;;23.60;1.00;;;;;;5069492;28;20188;-60
2023/01/20 13:30:07;;;;;;;10.95;2.00;;;23.30;1.00;;;;;;5070287;28;20198;-60
2023/01/20 13:32:44;;;;;;;11.13;2.25;;;23.50;1.00;;;;;;5070249;28;20195;-60